Terminal Aerodrome Forecast
Issued by NWS

Home | Current Version | Previous Version | Text Only | Print | Product List | Glossary On
Versions: 1 2 3 4 5 6 7 8 9 10 11 12 13 14
000
FTUS45 KBOI 260520
TAFMYL
TAF
KMYL 260520Z 2606/2706 36007KT P6SM -SHRA SCT020 OVC040
      TEMPO 2606/2610 5SM RA BR OVC025
     FM261500 35008KT P6SM BKN050
     FM262000 33009KT P6SM VCSH BKN050
     FM270400 35006KT P6SM SCT080=

USA.gov is the U.S. government's official web portal to all federal, state and local government web resources and services.